Marina Lobra — IXVN — position and weather

sailwx.info

Track history (hours):
 
Tides and Currents Weather Stations Pressure Air Temp Water Temp Dewpoint Dewpoint Depression Visibility Wind Speed Wind Dir Waves Ship Positions

Marina Lobra

Last reported at 2016-Aug-28 11:33 UTC. Time now 2016-Aug-28 16:42 UTC.
Position N 40°51' E 014°16'.

Length 56 m; draft 2.4 m.

Type: Ship (hazmat cat C). MMSI: 247188300.

Date/timePositionNaut miles runAvg speedWind from/ knotsBaromVisibWave heightAir tempDewpointWater temp
2016-Aug-28 11:33N 40°51' E 014°16'0 0.0
2016-Aug-26 19:33N 40°51' E 014°16'0 0.0
2016-Aug-26 18:33N 40°51' E 014°16'6 0.2
2016-Aug-25 17:08N 40°45' E 014°16'3 4.4
2016-Aug-25 16:33N 40°47' E 014°16'3 0.1
2016-Aug-24 19:33N 40°50' E 014°16'3 2.9
2016-Aug-24 18:33N 40°48' E 014°18'1 0.7
2016-Aug-24 17:33N 40°48' E 014°18'2 1.8
2016-Aug-24 16:33N 40°50' E 014°17'0 0.0
2016-Aug-24 15:33N 40°50' E 014°17'0 0.0
2016-Aug-24 14:33N 40°50' E 014°17'0 0.0
2016-Aug-24 13:33N 40°50' E 014°17'0 0.0
2016-Aug-24 12:33N 40°50' E 014°17'0 0.0
2016-Aug-24 11:33N 40°50' E 014°17'0 0.0
2016-Aug-24 10:33N 40°50' E 014°17'0 0.0
2016-Aug-24 09:33N 40°50' E 014°17'0 0.0
2016-Aug-24 08:32N 40°50' E 014°17'0 0.1
2016-Aug-24 07:33N 40°50' E 014°17'1 1.2
2016-Aug-24 06:33N 40°51' E 014°16'0 0.0
2016-Aug-24 04:20N 40°51' E 014°16'0 0.0
2016-Aug-24 00:31N 40°51' E 014°16'0 0.0
2016-Aug-23 19:08N 40°51' E 014°16'0 0.0
2016-Aug-23 18:09N 40°51' E 014°16'0 0.0
2016-Aug-23 17:33N 40°51' E 014°16'0 0.0
2016-Aug-23 16:25N 40°51' E 014°16'0 0.0
2016-Aug-23 15:33N 40°51' E 014°16'0 0.0
2016-Aug-23 14:25N 40°51' E 014°16'0 0.0
2016-Aug-23 13:33N 40°51' E 014°16'1 1.2
2016-Aug-23 12:33N 40°50' E 014°17'0 0.0
2016-Aug-23 11:33N 40°50' E 014°17'0 0.0
2016-Aug-23 10:33N 40°50' E 014°17'0 0.0
2016-Aug-23 09:33N 40°50' E 014°17'0 0.0
2016-Aug-23 08:33N 40°50' E 014°17'0 0.0
2016-Aug-23 07:33N 40°50' E 014°17'1 0.2
2016-Aug-23 00:30N 40°51' E 014°16'0 0.0
2016-Aug-22 23:30N 40°51' E 014°16'0 0.0
2016-Aug-22 22:32N 40°51' E 014°16'0 0.0
2016-Aug-22 21:31N 40°51' E 014°16'0 0.0
2016-Aug-22 20:29N 40°51' E 014°16'0 0.0
2016-Aug-22 19:28N 40°51' E 014°16'0 0.0
2016-Aug-22 14:17N 40°51' E 014°16'0 0.0
2016-Aug-22 13:33N 40°51' E 014°16'0 0.0
2016-Aug-22 12:24N 40°51' E 014°16'0 0.0
2016-Aug-22 11:21N 40°51' E 014°16'0 0.1
2016-Aug-22 10:32N 40°51' E 014°16'0 0.2
2016-Aug-22 08:17N 40°50' E 014°16'1 2.0
2016-Aug-22 07:33N 40°50' E 014°17'0 0.0
2016-Aug-22 06:33N 40°50' E 014°17'0 0.0
2016-Aug-22 05:33N 40°50' E 014°17'0 0.4
2016-Aug-22 04:33N 40°50' E 014°17'1 0.8
2016-Aug-22 03:33N 40°51' E 014°16'0 0.0
2016-Aug-22 02:33N 40°51' E 014°16'0 0.0
2016-Aug-22 01:33N 40°51' E 014°16'0 0.0
2016-Aug-22 00:33N 40°51' E 014°16'0 0.0
2016-Aug-21 23:33N 40°51' E 014°16'0 0.0
2016-Aug-21 22:33N 40°51' E 014°16'0 0.0
2016-Aug-21 21:33N 40°51' E 014°16'0 0.0
2016-Aug-21 20:33N 40°51' E 014°16'0 0.0
2016-Aug-21 19:33N 40°51' E 014°16'0 0.0
2016-Aug-21 18:33N 40°51' E 014°16'0 0.0
2016-Aug-21 17:33N 40°51' E 014°16'0 0.0
2016-Aug-21 16:33N 40°51' E 014°16'0 0.0
2016-Aug-21 15:33N 40°51' E 014°16'0 0.0
2016-Aug-21 14:33N 40°51' E 014°16'0 0.0
2016-Aug-21 13:33N 40°51' E 014°16'0 0.0
2016-Aug-21 12:33N 40°51' E 014°16'0 0.0
2016-Aug-21 11:33N 40°51' E 014°16'0 0.0
2016-Aug-21 10:33N 40°51' E 014°16'0 0.0
2016-Aug-21 09:30N 40°51' E 014°16'0 0.0
2016-Aug-21 08:33N 40°51' E 014°16'0 0.0
2016-Aug-21 07:33N 40°51' E 014°16'0 0.0
2016-Aug-21 06:33N 40°51' E 014°16'0 0.0
2016-Aug-21 05:33N 40°51' E 014°16'0 0.0
2016-Aug-21 04:33N 40°51' E 014°16'0 0.0
2016-Aug-21 03:33N 40°51' E 014°16'0 0.0
2016-Aug-21 02:32N 40°51' E 014°16'0 0.0
2016-Aug-21 01:34N 40°51' E 014°16'0 0.0
2016-Aug-21 00:33N 40°51' E 014°16'0 0.0
2016-Aug-20 23:33N 40°51' E 014°16'0 0.0
2016-Aug-20 22:32N 40°51' E 014°16'0 0.0
2016-Aug-20 21:34N 40°51' E 014°16'0 0.0
2016-Aug-20 20:33N 40°51' E 014°16'0 0.0
2016-Aug-20 19:33N 40°51' E 014°16'0 0.0
2016-Aug-20 18:33N 40°51' E 014°16'0 0.0
2016-Aug-20 17:33N 40°51' E 014°16'0 0.0
2016-Aug-20 16:33N 40°51' E 014°16'0 0.0
2016-Aug-20 15:33N 40°51' E 014°16'0 0.0
2016-Aug-20 14:33N 40°51' E 014°16'0 0.0
2016-Aug-20 13:33N 40°51' E 014°16'0 0.0
2016-Aug-20 12:33N 40°51' E 014°16'0 0.0
2016-Aug-20 11:33N 40°51' E 014°16'0 0.0
2016-Aug-20 10:33N 40°51' E 014°16'0 0.0
2016-Aug-20 09:33N 40°51' E 014°16'0 0.0
2016-Aug-20 08:33N 40°51' E 014°16'0 0.0
2016-Aug-20 07:34N 40°51' E 014°16'0 0.0
2016-Aug-20 06:33N 40°51' E 014°16'0 0.0
2016-Aug-20 05:33N 40°51' E 014°16'0 0.0
2016-Aug-20 04:33N 40°51' E 014°16'0 0.0
2016-Aug-20 03:33N 40°51' E 014°16'0 0.0
2016-Aug-20 02:33N 40°51' E 014°16'0 0.0
2016-Aug-20 01:33N 40°51' E 014°16'0 0.0
2016-Aug-20 00:33N 40°51' E 014°16'0 0.0
2016-Aug-19 23:33N 40°51' E 014°16'0 0.0
2016-Aug-19 22:33N 40°51' E 014°16'0 0.0
2016-Aug-19 21:33N 40°51' E 014°16'0 0.0
2016-Aug-19 20:33N 40°51' E 014°16'0 0.0
2016-Aug-19 19:33N 40°51' E 014°16'0 0.0
2016-Aug-19 18:33N 40°51' E 014°16'0 0.0
2016-Aug-19 17:33N 40°51' E 014°16'0 0.0
2016-Aug-19 16:33N 40°51' E 014°16'0 0.0
2016-Aug-19 15:32N 40°51' E 014°16'0 0.0
2016-Aug-19 14:33N 40°51' E 014°16'0 0.2
2016-Aug-19 13:33N 40°50' E 014°16'3 3.1
2016-Aug-19 12:33N 40°48' E 014°19'0 0.0
2016-Aug-19 11:33N 40°48' E 014°19'2 1.9
2016-Aug-19 10:33N 40°50' E 014°18'0 0.3
2016-Aug-19 09:33N 40°50' E 014°17'1 0.4
2016-Aug-19 06:33N 40°51' E 014°16'0 0.0
2016-Aug-18 13:33N 40°51' E 014°16'1 0.6
2016-Aug-18 12:33N 40°50' E 014°16'  
Track history (hours):
 
Tides and Currents Weather Stations Pressure Air Temp Water Temp Dewpoint Dewpoint Depression Visibility Wind Speed Wind Dir Waves Ship Positions

Marina Lobra

Last reported at 2016-Aug-28 11:33 UTC. Time now 2016-Aug-28 16:42 UTC.
Position N 40°51' E 014°16'.

Length 56 m; draft 2.4 m.

Type: Ship (hazmat cat C). MMSI: 247188300.

Date/timePositionNaut miles runAvg speedWind from/ knotsBaromVisibWave heightAir tempDewpointWater temp
2016-Aug-28 11:33N 40°51' E 014°16'0 0.0
2016-Aug-26 19:33N 40°51' E 014°16'0 0.0
2016-Aug-26 18:33N 40°51' E 014°16'6 0.2
2016-Aug-25 17:08N 40°45' E 014°16'3 4.4
2016-Aug-25 16:33N 40°47' E 014°16'3 0.1
2016-Aug-24 19:33N 40°50' E 014°16'3 2.9
2016-Aug-24 18:33N 40°48' E 014°18'1 0.7
2016-Aug-24 17:33N 40°48' E 014°18'2 1.8
2016-Aug-24 16:33N 40°50' E 014°17'0 0.0
2016-Aug-24 15:33N 40°50' E 014°17'0 0.0
2016-Aug-24 14:33N 40°50' E 014°17'0 0.0
2016-Aug-24 13:33N 40°50' E 014°17'0 0.0
2016-Aug-24 12:33N 40°50' E 014°17'0 0.0
2016-Aug-24 11:33N 40°50' E 014°17'0 0.0
2016-Aug-24 10:33N 40°50' E 014°17'0 0.0
2016-Aug-24 09:33N 40°50' E 014°17'0 0.0
2016-Aug-24 08:32N 40°50' E 014°17'0 0.1
2016-Aug-24 07:33N 40°50' E 014°17'1 1.2
2016-Aug-24 06:33N 40°51' E 014°16'0 0.0
2016-Aug-24 04:20N 40°51' E 014°16'0 0.0
2016-Aug-24 00:31N 40°51' E 014°16'0 0.0
2016-Aug-23 19:08N 40°51' E 014°16'0 0.0
2016-Aug-23 18:09N 40°51' E 014°16'0 0.0
2016-Aug-23 17:33N 40°51' E 014°16'0 0.0
2016-Aug-23 16:25N 40°51' E 014°16'0 0.0
2016-Aug-23 15:33N 40°51' E 014°16'0 0.0
2016-Aug-23 14:25N 40°51' E 014°16'0 0.0
2016-Aug-23 13:33N 40°51' E 014°16'1 1.2
2016-Aug-23 12:33N 40°50' E 014°17'0 0.0
2016-Aug-23 11:33N 40°50' E 014°17'0 0.0
2016-Aug-23 10:33N 40°50' E 014°17'0 0.0
2016-Aug-23 09:33N 40°50' E 014°17'0 0.0
2016-Aug-23 08:33N 40°50' E 014°17'0 0.0
2016-Aug-23 07:33N 40°50' E 014°17'1 0.2
2016-Aug-23 00:30N 40°51' E 014°16'0 0.0
2016-Aug-22 23:30N 40°51' E 014°16'0 0.0
2016-Aug-22 22:32N 40°51' E 014°16'0 0.0
2016-Aug-22 21:31N 40°51' E 014°16'0 0.0
2016-Aug-22 20:29N 40°51' E 014°16'0 0.0
2016-Aug-22 19:28N 40°51' E 014°16'0 0.0
2016-Aug-22 14:17N 40°51' E 014°16'0 0.0
2016-Aug-22 13:33N 40°51' E 014°16'0 0.0
2016-Aug-22 12:24N 40°51' E 014°16'0 0.0
2016-Aug-22 11:21N 40°51' E 014°16'0 0.1
2016-Aug-22 10:32N 40°51' E 014°16'0 0.2
2016-Aug-22 08:17N 40°50' E 014°16'1 2.0
2016-Aug-22 07:33N 40°50' E 014°17'0 0.0
2016-Aug-22 06:33N 40°50' E 014°17'0 0.0
2016-Aug-22 05:33N 40°50' E 014°17'0 0.4
2016-Aug-22 04:33N 40°50' E 014°17'1 0.8
2016-Aug-22 03:33N 40°51' E 014°16'0 0.0
2016-Aug-22 02:33N 40°51' E 014°16'0 0.0
2016-Aug-22 01:33N 40°51' E 014°16'0 0.0
2016-Aug-22 00:33N 40°51' E 014°16'0 0.0
2016-Aug-21 23:33N 40°51' E 014°16'0 0.0
2016-Aug-21 22:33N 40°51' E 014°16'0 0.0
2016-Aug-21 21:33N 40°51' E 014°16'0 0.0
2016-Aug-21 20:33N 40°51' E 014°16'0 0.0
2016-Aug-21 19:33N 40°51' E 014°16'0 0.0
2016-Aug-21 18:33N 40°51' E 014°16'0 0.0
2016-Aug-21 17:33N 40°51' E 014°16'0 0.0
2016-Aug-21 16:33N 40°51' E 014°16'0 0.0
2016-Aug-21 15:33N 40°51' E 014°16'0 0.0
2016-Aug-21 14:33N 40°51' E 014°16'0 0.0
2016-Aug-21 13:33N 40°51' E 014°16'0 0.0
2016-Aug-21 12:33N 40°51' E 014°16'0 0.0
2016-Aug-21 11:33N 40°51' E 014°16'0 0.0
2016-Aug-21 10:33N 40°51' E 014°16'0 0.0
2016-Aug-21 09:30N 40°51' E 014°16'0 0.0
2016-Aug-21 08:33N 40°51' E 014°16'0 0.0
2016-Aug-21 07:33N 40°51' E 014°16'0 0.0
2016-Aug-21 06:33N 40°51' E 014°16'0 0.0
2016-Aug-21 05:33N 40°51' E 014°16'0 0.0
2016-Aug-21 04:33N 40°51' E 014°16'0 0.0
2016-Aug-21 03:33N 40°51' E 014°16'0 0.0
2016-Aug-21 02:32N 40°51' E 014°16'0 0.0
2016-Aug-21 01:34N 40°51' E 014°16'0 0.0
2016-Aug-21 00:33N 40°51' E 014°16'0 0.0
2016-Aug-20 23:33N 40°51' E 014°16'0 0.0
2016-Aug-20 22:32N 40°51' E 014°16'0 0.0
2016-Aug-20 21:34N 40°51' E 014°16'0 0.0
2016-Aug-20 20:33N 40°51' E 014°16'0 0.0
2016-Aug-20 19:33N 40°51' E 014°16'0 0.0
2016-Aug-20 18:33N 40°51' E 014°16'0 0.0
2016-Aug-20 17:33N 40°51' E 014°16'0 0.0
2016-Aug-20 16:33N 40°51' E 014°16'0 0.0
2016-Aug-20 15:33N 40°51' E 014°16'0 0.0
2016-Aug-20 14:33N 40°51' E 014°16'0 0.0
2016-Aug-20 13:33N 40°51' E 014°16'0 0.0
2016-Aug-20 12:33N 40°51' E 014°16'0 0.0
2016-Aug-20 11:33N 40°51' E 014°16'0 0.0
2016-Aug-20 10:33N 40°51' E 014°16'0 0.0
2016-Aug-20 09:33N 40°51' E 014°16'0 0.0
2016-Aug-20 08:33N 40°51' E 014°16'0 0.0
2016-Aug-20 07:34N 40°51' E 014°16'0 0.0
2016-Aug-20 06:33N 40°51' E 014°16'0 0.0
2016-Aug-20 05:33N 40°51' E 014°16'0 0.0
2016-Aug-20 04:33N 40°51' E 014°16'0 0.0
2016-Aug-20 03:33N 40°51' E 014°16'0 0.0
2016-Aug-20 02:33N 40°51' E 014°16'0 0.0
2016-Aug-20 01:33N 40°51' E 014°16'0 0.0
2016-Aug-20 00:33N 40°51' E 014°16'0 0.0
2016-Aug-19 23:33N 40°51' E 014°16'0 0.0
2016-Aug-19 22:33N 40°51' E 014°16'0 0.0
2016-Aug-19 21:33N 40°51' E 014°16'0 0.0
2016-Aug-19 20:33N 40°51' E 014°16'0 0.0
2016-Aug-19 19:33N 40°51' E 014°16'0 0.0
2016-Aug-19 18:33N 40°51' E 014°16'0 0.0
2016-Aug-19 17:33N 40°51' E 014°16'0 0.0
2016-Aug-19 16:33N 40°51' E 014°16'0 0.0
2016-Aug-19 15:32N 40°51' E 014°16'0 0.0
2016-Aug-19 14:33N 40°51' E 014°16'0 0.2
2016-Aug-19 13:33N 40°50' E 014°16'3 3.1
2016-Aug-19 12:33N 40°48' E 014°19'0 0.0
2016-Aug-19 11:33N 40°48' E 014°19'2 1.9
2016-Aug-19 10:33N 40°50' E 014°18'0 0.3
2016-Aug-19 09:33N 40°50' E 014°17'1 0.4
2016-Aug-19 06:33N 40°51' E 014°16'0 0.0
2016-Aug-18 13:33N 40°51' E 014°16'1 0.6
2016-Aug-18 12:33N 40°50' E 014°16'  

Dump ship's entire track history